createdAt,value
2022-11-28T00:01:29.407Z,15.13
2022-11-28T00:03:57.446Z,15.40
2022-11-28T00:06:27.322Z,15.67
2022-11-28T00:08:55.811Z,16.55
2022-11-28T00:11:25.539Z,16.30
2022-11-28T00:13:54.551Z,14.98
2022-11-28T00:16:23.338Z,16.07
2022-11-28T00:18:53.332Z,16.88
2022-11-28T00:21:21.289Z,17.65
2022-11-28T00:23:53.415Z,17.08
2022-11-28T00:26:34.183Z,17.42
2022-11-28T00:29:03.730Z,19.63
2022-11-28T00:31:35.859Z,18.55
2022-11-28T00:34:03.743Z,17.00
2022-11-28T00:36:34.451Z,18.50
2022-11-28T00:39:02.283Z,18.38
2022-11-28T00:41:31.222Z,17.80
2022-11-28T00:43:59.007Z,17.92
2022-11-28T00:46:27.192Z,17.55
2022-11-28T00:49:14.601Z,18.30
2022-11-28T00:51:43.454Z,17.80
2022-11-28T00:54:11.440Z,17.63
2022-11-28T00:56:40.464Z,17.08
2022-11-28T00:59:08.907Z,16.45
2022-11-28T01:01:40.367Z,17.55
2022-11-28T01:04:11.157Z,16.90
2022-11-28T01:06:41.445Z,17.13
2022-11-28T01:09:13.827Z,18.50
2022-11-28T01:11:43.159Z,19.38
2022-11-28T01:14:12.812Z,17.92
2022-11-28T01:16:40.875Z,17.90
2022-11-28T01:19:08.994Z,19.13
2022-11-28T01:21:36.991Z,18.63
2022-11-28T01:24:04.971Z,18.30
2022-11-28T01:26:33.159Z,18.58
2022-11-28T01:29:01.191Z,18.35
2022-11-28T01:31:30.570Z,18.23
2022-11-28T01:33:59.257Z,17.40
2022-11-28T01:36:27.360Z,18.40
2022-11-28T01:38:54.900Z,18.55
2022-11-28T01:41:26.414Z,18.35
2022-11-28T01:44:07.084Z,17.83
2022-11-28T01:46:36.386Z,17.88
2022-11-28T01:49:22.921Z,16.95
2022-11-28T01:52:00.297Z,17.55
2022-11-28T01:54:29.883Z,18.42
2022-11-28T01:57:02.129Z,18.73
2022-11-28T01:59:37.323Z,17.67
2022-11-28T02:02:13.594Z,18.42
2022-11-28T02:04:42.706Z,16.92
2022-11-28T02:07:10.874Z,17.73
2022-11-28T02:09:38.421Z,17.27
2022-11-28T02:12:09.011Z,17.63
2022-11-28T02:14:48.440Z,17.45
2022-11-28T02:17:36.207Z,16.75
2022-11-28T02:20:22.431Z,17.00
2022-11-28T02:23:07.950Z,18.02
2022-11-28T02:26:06.370Z,16.95
2022-11-28T02:28:55.316Z,17.20
2022-11-28T02:31:56.464Z,18.42
2022-11-28T02:34:31.987Z,17.40
2022-11-28T02:37:21.288Z,18.10
2022-11-28T02:40:23.380Z,19.17
2022-11-28T02:43:05.477Z,19.42
2022-11-28T02:45:48.100Z,18.90
2022-11-28T02:48:23.072Z,20.77
2022-11-28T02:51:14.973Z,19.50
2022-11-28T02:53:45.911Z,20.75
2022-11-28T02:56:14.127Z,20.75
2022-11-28T02:58:42.961Z,20.52
2022-11-28T03:01:47.773Z,20.70
2022-11-28T03:04:36.206Z,21.38
2022-11-28T03:07:33.240Z,21.15
2022-11-28T03:10:48.167Z,22.17
2022-11-28T03:13:39.885Z,21.90
2022-11-28T03:16:24.880Z,22.63
2022-11-28T03:19:28.479Z,23.05
2022-11-28T03:22:28.367Z,21.08
2022-11-28T03:25:11.213Z,22.70
2022-11-28T03:27:54.502Z,21.02
2022-11-28T03:30:34.518Z,21.85
2022-11-28T03:33:03.716Z,22.52
2022-11-28T03:35:38.134Z,22.73
2022-11-28T03:38:20.443Z,20.70
2022-11-28T03:40:53.423Z,22.02
2022-11-28T03:43:31.438Z,20.85
2022-11-28T03:46:05.522Z,21.98
2022-11-28T03:48:39.881Z,22.17
2022-11-28T03:51:33.173Z,21.55
2022-11-28T03:54:04.567Z,19.27
2022-11-28T03:56:32.013Z,19.08
2022-11-28T03:59:09.768Z,18.95
2022-11-28T04:01:49.671Z,20.00
2022-11-28T04:07:08.174Z,18.42
2022-11-28T04:09:42.866Z,21.17
2022-11-28T04:12:34.668Z,20.67
2022-11-28T04:17:56.362Z,18.88
2022-11-28T04:20:39.362Z,18.65
2022-11-28T04:23:12.641Z,18.70
2022-11-28T04:25:46.903Z,18.50
2022-11-28T04:28:20.488Z,17.02
2022-11-28T04:30:51.355Z,17.40
2022-11-28T04:33:23.099Z,15.70
2022-11-28T04:35:53.879Z,14.32
2022-11-28T04:38:24.889Z,11.35
2022-11-28T04:41:12.552Z,8.90
2022-11-28T04:43:45.075Z,6.82
2022-11-28T04:46:21.798Z,7.30
2022-11-28T04:48:49.577Z,6.03
2022-11-28T04:51:24.569Z,6.75
2022-11-28T04:54:14.948Z,5.68
2022-11-28T04:56:49.918Z,5.85
2022-11-28T04:59:22.396Z,6.35
2022-11-28T05:01:50.449Z,6.88
2022-11-28T05:04:18.714Z,7.03
2022-11-28T05:06:46.457Z,7.05
2022-11-28T05:09:14.569Z,7.63
2022-11-28T05:14:11.163Z,7.43
2022-11-28T05:16:38.903Z,7.05
2022-11-28T05:19:06.685Z,6.72
2022-11-28T05:21:34.240Z,8.10
2022-11-28T05:24:01.858Z,6.93
2022-11-28T05:26:32.496Z,7.40
2022-11-28T05:29:02.023Z,6.90
2022-11-28T05:31:31.300Z,8.63
2022-11-28T05:33:59.210Z,7.72
2022-11-28T05:36:26.671Z,7.95
2022-11-28T05:38:54.194Z,8.13
2022-11-28T05:41:27.530Z,8.13
2022-11-28T05:43:56.586Z,7.75
2022-11-28T05:46:25.961Z,7.38
2022-11-28T05:48:53.527Z,6.30
2022-11-28T05:51:21.004Z,6.63
2022-11-28T05:53:48.920Z,6.13
2022-11-28T05:56:19.490Z,6.18
2022-11-28T05:58:47.067Z,6.90
2022-11-28T06:01:17.862Z,6.28
2022-11-28T06:03:46.205Z,5.95
2022-11-28T06:06:15.952Z,6.38
2022-11-28T06:08:44.439Z,5.95
2022-11-28T06:11:14.687Z,6.05
2022-11-28T06:13:43.814Z,5.78
2022-11-28T06:16:19.968Z,6.28
2022-11-28T06:18:48.183Z,6.30
2022-11-28T06:21:16.309Z,6.40
2022-11-28T06:23:43.888Z,6.80
2022-11-28T06:26:13.968Z,6.47
2022-11-28T06:28:41.917Z,7.32
2022-11-28T06:31:21.001Z,6.45
2022-11-28T06:33:49.779Z,6.35
2022-11-28T06:36:19.385Z,6.38
2022-11-28T06:38:47.953Z,6.88
2022-11-28T06:41:18.545Z,7.55
2022-11-28T06:43:46.327Z,7.95
2022-11-28T06:46:17.004Z,7.55
2022-11-28T06:48:45.941Z,7.93
2022-11-28T06:51:14.507Z,8.45
2022-11-28T06:53:42.103Z,7.32
2022-11-28T06:56:16.230Z,8.40
2022-11-28T06:58:44.686Z,8.65
2022-11-28T07:01:15.938Z,8.23
2022-11-28T07:03:44.804Z,9.05
2022-11-28T07:06:13.739Z,9.27
2022-11-28T07:08:41.943Z,10.10
2022-11-28T07:11:21.475Z,10.52
2022-11-28T07:16:23.396Z,9.98
2022-11-28T07:18:52.324Z,10.35
2022-11-28T07:21:20.866Z,9.55
2022-11-28T07:23:49.257Z,9.67
2022-11-28T07:26:18.906Z,9.60
2022-11-28T07:28:48.380Z,9.90
2022-11-28T07:31:19.476Z,9.18
2022-11-28T07:33:49.323Z,10.63
2022-11-28T07:36:23.219Z,9.48
2022-11-28T07:38:56.687Z,11.18
2022-11-28T07:41:26.922Z,10.98
2022-11-28T07:44:02.216Z,10.57
2022-11-28T07:46:32.106Z,10.82
2022-11-28T07:49:00.765Z,10.13
2022-11-28T07:51:31.362Z,10.05
2022-11-28T07:54:02.563Z,11.07
2022-11-28T07:57:04.090Z,11.43
2022-11-28T07:59:20.821Z,10.65
2022-11-28T08:02:43.676Z,12.30
2022-11-28T08:05:23.646Z,12.90
2022-11-28T08:07:52.827Z,13.80
2022-11-28T08:10:20.561Z,14.27
2022-11-28T08:13:07.972Z,14.57
2022-11-28T08:15:37.937Z,14.05
2022-11-28T08:18:06.906Z,14.75
2022-11-28T08:20:34.557Z,15.20
2022-11-28T08:23:02.263Z,14.43
2022-11-28T08:25:29.841Z,14.77
2022-11-28T08:27:57.444Z,13.40
2022-11-28T08:30:25.067Z,15.32
2022-11-28T08:32:52.848Z,14.70
2022-11-28T08:35:20.637Z,15.90
2022-11-28T08:37:48.242Z,15.20
2022-11-28T08:40:16.097Z,16.08
2022-11-28T08:42:43.790Z,16.17
2022-11-28T08:45:12.166Z,15.80
2022-11-28T08:47:39.921Z,15.77
2022-11-28T08:50:08.085Z,15.43
2022-11-28T08:52:36.167Z,16.20
2022-11-28T08:55:04.066Z,16.45
2022-11-28T08:57:32.229Z,15.52
2022-11-28T09:00:00.096Z,16.27
2022-11-28T09:02:27.681Z,16.02
2022-11-28T09:04:56.083Z,14.32
2022-11-28T09:07:23.934Z,14.13
2022-11-28T09:09:51.724Z,14.43
2022-11-28T09:12:19.707Z,12.73
2022-11-28T09:14:47.645Z,11.85
2022-11-28T09:17:18.270Z,11.85
2022-11-28T09:19:46.017Z,10.30
2022-11-28T09:22:13.552Z,11.80
2022-11-28T09:24:41.000Z,10.82
2022-11-28T09:27:10.709Z,10.13
2022-11-28T09:29:38.287Z,10.32
2022-11-28T09:32:06.161Z,10.27
2022-11-28T09:34:34.061Z,9.35
2022-11-28T09:37:04.894Z,9.82
2022-11-28T09:39:50.315Z,10.23
2022-11-28T09:42:44.157Z,8.60
2022-11-28T09:45:23.661Z,8.65
2022-11-28T09:47:59.546Z,9.43
2022-11-28T09:50:33.027Z,8.95
2022-11-28T09:53:22.743Z,8.90
2022-11-28T09:58:28.899Z,9.15
2022-11-28T10:01:12.276Z,8.95
2022-11-28T10:03:48.697Z,9.55
2022-11-28T10:06:23.819Z,9.35
2022-11-28T10:08:54.532Z,9.75
2022-11-28T10:11:45.386Z,10.43
2022-11-28T10:14:21.914Z,8.80
2022-11-28T10:17:01.861Z,10.02
2022-11-28T10:19:56.433Z,9.55
2022-11-28T10:22:48.468Z,9.75
2022-11-28T10:25:38.858Z,10.32
2022-11-28T10:28:13.655Z,11.25
2022-11-28T10:30:46.623Z,11.98
2022-11-28T10:33:33.937Z,12.45
2022-11-28T10:36:03.345Z,13.70
2022-11-28T10:38:34.843Z,13.68
2022-11-28T10:41:12.908Z,13.77
2022-11-28T10:44:02.062Z,14.48
2022-11-28T10:49:33.373Z,14.38
2022-11-28T10:52:15.494Z,14.85
2022-11-28T10:54:49.927Z,16.38
2022-11-28T10:57:20.426Z,15.73
2022-11-28T10:59:47.954Z,15.45
2022-11-28T11:02:32.757Z,15.48
2022-11-28T11:05:01.470Z,15.10
2022-11-28T11:07:31.845Z,17.40
2022-11-28T11:10:15.322Z,17.55
2022-11-28T11:12:44.376Z,17.13
2022-11-28T11:15:32.133Z,16.60
2022-11-28T11:18:19.772Z,17.63
2022-11-28T11:20:47.368Z,16.30
2022-11-28T11:23:22.242Z,16.55
2022-11-28T11:25:53.795Z,17.02
2022-11-28T11:28:54.942Z,17.38
2022-11-28T11:31:32.700Z,17.92
2022-11-28T11:34:12.902Z,18.52
2022-11-28T11:36:40.766Z,18.98
2022-11-28T11:39:11.469Z,16.65
2022-11-28T11:41:41.583Z,16.00
2022-11-28T11:44:14.899Z,16.73
2022-11-28T11:46:56.227Z,16.05
2022-11-28T11:49:36.290Z,16.52
2022-11-28T11:52:13.501Z,15.40
2022-11-28T11:55:11.692Z,15.82
2022-11-28T11:57:44.657Z,14.82
2022-11-28T12:00:19.790Z,16.40
2022-11-28T12:03:25.213Z,14.98
2022-11-28T12:06:29.120Z,15.07
2022-11-28T12:10:07.116Z,15.55
2022-11-28T12:12:37.380Z,17.27
2022-11-28T12:15:15.602Z,16.73
2022-11-28T12:18:20.468Z,17.02
2022-11-28T12:21:13.541Z,16.15
2022-11-28T12:23:59.162Z,16.45
2022-11-28T12:26:36.670Z,17.02
2022-11-28T12:29:32.006Z,17.70
2022-11-28T12:32:28.394Z,17.45
2022-11-28T12:35:22.227Z,17.48
2022-11-28T12:38:11.701Z,16.52
2022-11-28T12:41:09.596Z,16.40
2022-11-28T12:44:12.600Z,17.52
2022-11-28T12:46:51.842Z,19.08
2022-11-28T12:49:45.398Z,18.80
2022-11-28T12:52:42.194Z,18.65
2022-11-28T12:55:56.595Z,19.15
2022-11-28T12:58:33.831Z,17.27
2022-11-28T13:01:26.238Z,17.92
2022-11-28T13:04:41.596Z,19.15
2022-11-28T13:07:18.493Z,20.58
2022-11-28T13:10:21.904Z,20.27
2022-11-28T13:13:05.668Z,18.90
2022-11-28T13:15:39.162Z,20.58
2022-11-28T13:18:32.803Z,20.25
2022-11-28T13:21:11.556Z,18.17
2022-11-28T13:24:07.532Z,19.02
2022-11-28T13:26:48.800Z,19.60
2022-11-28T13:29:31.773Z,19.35
2022-11-28T13:32:35.586Z,19.35
2022-11-28T13:35:04.903Z,19.73
2022-11-28T13:44:46.661Z,18.55
2022-11-28T13:47:23.775Z,17.38
2022-11-28T13:49:51.344Z,17.45
2022-11-28T13:52:18.857Z,15.95
2022-11-28T13:54:54.576Z,20.88
2022-11-28T13:57:37.328Z,20.63
2022-11-28T14:00:29.730Z,15.88
2022-11-28T14:03:00.095Z,15.77
2022-11-28T14:05:38.507Z,15.95
2022-11-28T14:08:07.405Z,16.23
2022-11-28T14:10:40.832Z,15.38
2022-11-28T14:13:23.020Z,15.48
2022-11-28T14:16:09.699Z,15.35
2022-11-28T14:19:25.694Z,15.48
2022-11-28T14:22:24.672Z,15.52
2022-11-28T14:25:23.266Z,15.23
2022-11-28T14:27:57.205Z,15.23
2022-11-28T14:30:34.488Z,17.05
2022-11-28T14:33:15.898Z,16.95
2022-11-28T14:40:23.475Z,29.45
2022-11-28T14:43:26.400Z,17.27
2022-11-28T14:46:23.057Z,16.75
2022-11-28T14:48:59.880Z,16.52
2022-11-28T14:51:46.183Z,17.70
2022-11-28T14:54:29.395Z,16.90
2022-11-28T14:56:59.975Z,16.15
2022-11-28T14:59:34.516Z,15.88
2022-11-28T15:02:25.693Z,17.90
2022-11-28T15:05:35.101Z,17.27
2022-11-28T15:08:21.476Z,18.75
2022-11-28T15:11:13.762Z,17.20
2022-11-28T15:13:50.996Z,18.25
2022-11-28T15:16:21.590Z,16.52
2022-11-28T15:18:54.039Z,19.15
2022-11-28T15:21:25.149Z,18.52
2022-11-28T15:23:53.013Z,17.27
2022-11-28T15:26:29.267Z,16.48
2022-11-28T15:29:20.958Z,16.25
2022-11-28T15:31:51.886Z,16.77
2022-11-28T15:34:28.499Z,15.57
2022-11-28T15:37:06.614Z,17.23
2022-11-28T15:39:39.939Z,16.77
2022-11-28T15:42:22.579Z,16.80
2022-11-28T15:45:06.799Z,16.50
2022-11-28T15:47:35.293Z,15.18
2022-11-28T15:50:17.255Z,15.88
2022-11-28T15:53:01.427Z,15.98
2022-11-28T15:55:33.768Z,14.30
2022-11-28T15:58:32.049Z,14.50
2022-11-28T16:01:24.376Z,14.32
2022-11-28T16:04:15.231Z,16.10
2022-11-28T16:06:49.221Z,15.18
2022-11-28T16:09:20.171Z,15.30
2022-11-28T16:11:51.926Z,15.18
2022-11-28T16:14:29.365Z,13.25
2022-11-28T16:17:07.160Z,13.15
2022-11-28T16:19:37.665Z,12.15
2022-11-28T16:22:09.504Z,13.73
2022-11-28T16:24:43.098Z,13.82
2022-11-28T16:27:37.583Z,13.75
2022-11-28T16:30:26.547Z,12.55
2022-11-28T16:32:56.027Z,13.05
2022-11-28T16:35:32.302Z,13.10
2022-11-28T16:38:24.305Z,12.25
2022-11-28T16:40:59.194Z,12.57
2022-11-28T16:43:39.475Z,13.73
2022-11-28T16:46:17.089Z,11.77
2022-11-28T16:48:59.141Z,12.25
2022-11-28T16:51:26.646Z,11.48
2022-11-28T16:53:55.773Z,11.20
2022-11-28T16:56:24.431Z,11.63
2022-11-28T16:58:59.025Z,12.90
2022-11-28T17:01:27.871Z,11.40
2022-11-28T17:03:57.367Z,12.40
2022-11-28T17:06:34.098Z,11.48
2022-11-28T17:09:02.198Z,10.93
2022-11-28T17:11:33.521Z,10.15
2022-11-28T17:14:02.717Z,9.88
2022-11-28T17:16:33.521Z,10.27
2022-11-28T17:20:28.423Z,10.18
2022-11-28T17:22:59.152Z,9.23
2022-11-28T17:25:26.724Z,9.32
2022-11-28T17:27:54.350Z,9.13
2022-11-28T17:30:22.187Z,9.93
2022-11-28T17:32:52.161Z,10.32
2022-11-28T17:35:25.238Z,9.90
2022-11-28T17:37:52.891Z,10.52
2022-11-28T17:40:36.821Z,11.32
2022-11-28T17:43:05.093Z,11.13
2022-11-28T17:45:35.873Z,11.15
2022-11-28T17:48:03.647Z,11.35
2022-11-28T17:50:31.432Z,10.77
2022-11-28T17:52:58.968Z,10.85
2022-11-28T17:55:26.461Z,11.35
2022-11-28T17:57:54.271Z,11.88
2022-11-28T18:00:22.090Z,11.40
2022-11-28T18:02:49.639Z,10.18
2022-11-28T18:05:17.354Z,10.60
2022-11-28T18:07:45.234Z,10.90
2022-11-28T18:10:12.805Z,11.18
2022-11-28T18:12:40.454Z,11.23
2022-11-28T18:15:10.566Z,11.85
2022-11-28T18:17:38.963Z,11.00
2022-11-28T18:20:07.305Z,10.63
2022-11-28T18:22:35.037Z,11.02
2022-11-28T18:25:02.973Z,11.25
2022-11-28T18:27:30.951Z,11.43
2022-11-28T18:29:58.911Z,11.93
2022-11-28T18:32:26.562Z,11.13
2022-11-28T18:34:54.928Z,12.32
2022-11-28T18:37:22.496Z,12.05
2022-11-28T18:39:49.996Z,12.20
2022-11-28T18:42:18.181Z,11.38
2022-11-28T18:44:47.423Z,10.80
2022-11-28T18:47:15.228Z,12.00
2022-11-28T18:49:43.100Z,11.55
2022-11-28T18:52:11.371Z,11.73
2022-11-28T18:54:38.963Z,11.60
2022-11-28T18:57:08.018Z,12.00
2022-11-28T18:59:35.876Z,12.20
2022-11-28T19:02:03.664Z,11.82
2022-11-28T19:04:31.505Z,11.88
2022-11-28T19:07:00.533Z,11.40
2022-11-28T19:09:28.063Z,10.65
2022-11-28T19:11:55.897Z,11.60
2022-11-28T19:14:24.293Z,10.68
2022-11-28T19:16:54.153Z,11.15
2022-11-28T19:21:50.281Z,9.98
2022-11-28T19:24:19.349Z,10.13
2022-11-28T19:26:47.115Z,9.63
2022-11-28T19:29:15.972Z,10.48
2022-11-28T19:31:43.497Z,10.38
2022-11-28T19:36:45.391Z,10.00
2022-11-28T19:39:19.157Z,9.77
2022-11-28T19:41:47.507Z,10.00
2022-11-28T19:44:15.772Z,9.55
2022-11-28T19:46:43.993Z,9.73
2022-11-28T19:49:20.177Z,9.45
2022-11-28T19:51:50.673Z,9.88
2022-11-28T19:54:22.210Z,10.10
2022-11-28T19:56:50.687Z,10.18
2022-11-28T19:59:19.423Z,10.35
2022-11-28T20:01:49.977Z,9.32
2022-11-28T20:04:20.393Z,8.90
2022-11-28T20:06:48.838Z,9.35
2022-11-28T20:09:16.453Z,10.35
2022-11-28T20:11:45.258Z,9.30
2022-11-28T20:14:16.847Z,9.00
2022-11-28T20:16:46.263Z,9.20
2022-11-28T20:19:16.454Z,8.25
2022-11-28T20:21:46.471Z,9.35
2022-11-28T20:26:44.535Z,8.77
2022-11-28T20:29:15.530Z,8.90
2022-11-28T20:31:45.802Z,9.00
2022-11-28T20:34:18.037Z,8.20
2022-11-28T20:39:14.537Z,8.52
2022-11-28T20:41:42.102Z,8.18
2022-11-28T20:44:10.331Z,7.97
2022-11-28T20:46:38.303Z,8.70
2022-11-28T20:49:07.221Z,8.35
2022-11-28T20:51:35.898Z,8.57
2022-11-28T20:54:05.377Z,8.88
2022-11-28T20:56:57.963Z,9.60
2022-11-28T20:59:24.138Z,8.13
2022-11-28T21:01:51.867Z,8.65
2022-11-28T21:04:19.678Z,8.05
2022-11-28T21:06:49.117Z,7.82
2022-11-28T21:12:02.833Z,8.45
2022-11-28T21:14:31.048Z,8.18
2022-11-28T21:16:59.618Z,8.18
2022-11-28T21:19:27.421Z,8.85
2022-11-28T21:21:55.237Z,9.18
2022-11-28T21:24:22.889Z,10.05
2022-11-28T21:26:53.855Z,9.05
2022-11-28T21:29:23.763Z,9.43
2022-11-28T21:31:52.216Z,9.30
2022-11-28T21:34:19.880Z,8.80
2022-11-28T21:36:47.783Z,8.13
2022-11-28T21:39:18.864Z,8.65
2022-11-28T21:41:46.887Z,8.68
2022-11-28T21:44:14.556Z,7.80
2022-11-28T21:46:42.204Z,7.57
2022-11-28T21:49:10.191Z,10.60
2022-11-28T21:51:40.459Z,8.95
2022-11-28T21:54:10.971Z,8.93
2022-11-28T21:56:38.677Z,8.10
2022-11-28T21:59:06.518Z,15.05
2022-11-28T22:01:34.283Z,8.63
2022-11-28T22:04:03.021Z,9.00
2022-11-28T22:06:32.993Z,8.15
2022-11-28T22:09:08.718Z,7.87
2022-11-28T22:11:39.697Z,7.45
2022-11-28T22:14:07.454Z,8.15
2022-11-28T22:16:35.036Z,8.23
2022-11-28T22:19:05.054Z,7.90
2022-11-28T22:21:55.311Z,8.00
2022-11-28T22:24:24.166Z,7.93
2022-11-28T22:26:53.356Z,8.55
2022-11-28T22:29:21.951Z,8.68
2022-11-28T22:31:49.705Z,8.15
2022-11-28T22:34:18.652Z,7.55
2022-11-28T22:36:46.259Z,7.80
2022-11-28T22:39:13.835Z,8.68
2022-11-28T22:41:43.438Z,8.43
2022-11-28T22:44:12.026Z,8.10
2022-11-28T22:46:39.622Z,8.35
2022-11-28T22:49:09.206Z,8.15
2022-11-28T22:51:39.339Z,8.05
2022-11-28T22:54:07.167Z,7.68
2022-11-28T22:56:35.141Z,7.68
2022-11-28T22:59:05.187Z,8.20
2022-11-28T23:01:34.477Z,8.05
2022-11-28T23:04:02.959Z,8.27
2022-11-28T23:06:34.437Z,7.93
2022-11-28T23:09:06.339Z,8.50
2022-11-28T23:11:36.014Z,7.78
2022-11-28T23:14:05.960Z,9.00
2022-11-28T23:16:39.809Z,8.05
2022-11-28T23:19:14.675Z,8.27
2022-11-28T23:21:44.720Z,7.88
2022-11-28T23:24:21.048Z,7.63
2022-11-28T23:26:50.930Z,7.70
2022-11-28T23:29:19.375Z,8.60
2022-11-28T23:31:47.846Z,7.97
2022-11-28T23:34:16.474Z,7.70
2022-11-28T23:36:46.630Z,7.78
2022-11-28T23:39:20.215Z,8.55
2022-11-28T23:41:48.319Z,8.88
2022-11-28T23:44:18.039Z,8.57
2022-11-28T23:46:46.642Z,8.70
2022-11-28T23:49:14.652Z,9.13
2022-11-28T23:51:42.577Z,8.40
2022-11-28T23:54:11.324Z,8.63
2022-11-28T23:56:41.090Z,7.80
2022-11-28T23:59:10.696Z,8.23
